Flight Track Log - Related Links

Times and Time Zones

All times are in EDT time to prevent confusion due to time zone crossing. See the RPA3397 flight status page for this flight to view local times or setup timezone preferences in your user account.

Time Position Orientation Groundspeed Altitude Reporting Facility
EDT Latitude Longitude Course Direction KTS MPH feet Rate Location/Type
Sat 08:21:41 AM 39.8833 -75.2167 261° West 154 177 800  Level Philadelphia TRACON
Sat 08:22:35 AM 39.9000 -75.1500 72° East 203 234 2,700 2,421 Climbing Philadelphia TRACON
Sat 08:23:00 AM 39.8333 -75.6001 270° West  Level FlightAware Approximate
Sat 08:23:35 AM 39.9500 -75.1333 14° North 263 303 5,400  Level Philadelphia TRACON
Sat 08:24:00 AM 39.8334 -75.7280 270° West  Level FlightAware Approximate
Sat 08:24:35 AM 39.9500 -75.2167 270° West 301 346 8,400  Level Philadelphia TRACON
Sat 08:25:00 AM 39.8215 -75.8543 258° West  Level FlightAware Approximate
Sat 08:26:00 AM 39.8007 -75.9793 258° West  Level FlightAware Approximate
Sat 08:26:56 AM 39.9000 -75.4953 257° West 361 415 10,000  Level New York Center
Sat 08:27:00 AM 39.7868 -76.1057 261° West  Level FlightAware Approximate
Sat 08:27:54 AM 39.8719 -75.6233 254° West 373 429 12,600  Level New York Center
Sat 08:28:55 AM 39.8506 -75.7381 256° West 367 422 14,700 2,319 Climbing New York Center
Sat 08:29:53 AM 39.8403 -75.8808 265° West 366 421 17,200 2,067 Climbing New York Center
Sat 08:30:54 AM 39.8389 -76.0078 269° West 377 434 18,800 1,736 Climbing New York Center
Sat 08:31:54 AM 39.8383 -76.1592 270° West 387 445 20,700 1,835 Climbing New York Center
Sat 08:32:55 AM 39.8011 -76.2858 249° West 398 458 22,500 1,589 Climbing New York Center
Sat 08:34:25 AM 39.7167 -76.4817 241° Southwest 386 444 24,700 1,430 Climbing Washington Center
Sat 08:35:26 AM 39.6467 -76.6344 239° Southwest 430 495 26,100 1,289 Climbing Washington Center
Sat 08:36:26 AM 39.5850 -76.7708 240° Southwest 445 512 27,300 1,220 Climbing Washington Center
Sat 08:37:24 AM 39.5231 -76.9125 240° Southwest 445 512 28,500 1,210 Climbing Washington Center
Sat 08:38:25 AM 39.4447 -77.0319 230° Southwest 445 512 29,700 1,131 Climbing Washington Center
Sat 08:39:26 AM 39.3475 -77.1319 219° Southwest 442 509 30,800 1,140 Climbing Washington Center
Sat 08:40:26 AM 39.2522 -77.2344 220° Southwest 442 509 32,000 1,210 Climbing Washington Center
Sat 08:41:25 AM 39.1614 -77.3317 220° Southwest 442 509 33,200 1,000 Climbing Washington Center
Sat 08:42:26 AM 39.0683 -77.4256 218° Southwest 437 503 34,000 393 Climbing Washington Center
Sat 08:43:27 AM 38.9750 -77.5222 219° Southwest 432 497 34,000  Level Washington Center
Sat 08:44:25 AM 38.8794 -77.6236 220° Southwest 442 509 34,000  Level Washington Center
Sat 08:45:25 AM 38.7925 -77.7144 219° Southwest 447 514 34,000  Level Washington Center
Sat 08:46:26 AM 38.6928 -77.8125 218° Southwest 453 521 34,000  Level Washington Center
Sat 08:47:26 AM 38.6072 -77.9217 225° Southwest 446 513 34,000  Level Washington Center
Sat 08:48:27 AM 38.5361 -78.0442 233° Southwest 435 501 34,000  Level Washington Center
Sat 08:49:27 AM 38.4647 -78.1664 233° Southwest 435 501 34,000  Level Washington Center
Sat 08:50:25 AM 38.3933 -78.2886 233° Southwest 435 501 34,000  Level Washington Center
Sat 08:51:26 AM 38.3217 -78.4103 233° Southwest 440 506 34,000  Level Washington Center
Sat 08:52:27 AM 38.2475 -78.5450 235° Southwest 433 498 34,000  Level Washington Center
Sat 08:53:27 AM 38.1822 -78.6533 233° Southwest 433 498 34,000  Level Washington Center
Sat 08:54:24 AM 38.1183 -78.7828 238° Southwest 433 498 34,000  Level Washington Center
Sat 08:55:25 AM 38.0522 -78.9144 238° Southwest 438 504 34,000  Level Washington Center
Sat 08:56:28 AM 37.9836 -79.0564 239° Southwest 438 504 34,000  Level Washington Center
Sat 08:57:25 AM 37.9214 -79.1850 239° Southwest 438 504 34,000  Level Washington Center
Sat 08:58:26 AM 37.8569 -79.3161 238° Southwest 438 504 34,000  Level Washington Center
Sat 08:59:26 AM 37.7922 -79.4469 238° Southwest 438 504 34,000  Level Washington Center
Sat 09:00:27 AM 37.7364 -79.5622 239° Southwest 438 504 34,000  Level Washington Center
Sat 09:01:27 AM 37.6694 -79.6872 236° Southwest 438 504 34,000  Level Washington Center
Sat 09:02:25 AM 37.5978 -79.8303 238° Southwest 438 504 34,000  Level Washington Center
Sat 09:03:25 AM 37.5325 -79.9653 239° Southwest 444 511 34,000  Level Washington Center
Sat 09:05:37 AM 37.3961 -80.2303 237° Southwest 425 489 34,000  Level Atlanta Center
Sat 09:06:37 AM 37.3314 -80.3561 237° Southwest 431 496 34,000  Level Atlanta Center
Sat 09:07:37 AM 37.2661 -80.4819 237° Southwest 431 496 34,000  Level Atlanta Center
Sat 09:08:37 AM 37.2031 -80.6072 238° Southwest 431 496 34,000  Level Atlanta Center
Sat 09:09:37 AM 37.1297 -80.7458 236° Southwest 431 496 34,000  Level Atlanta Center
Sat 09:10:37 AM 37.0642 -80.8733 237° Southwest 431 496 34,000  Level Atlanta Center
Sat 09:11:37 AM 37.0008 -80.9981 238° Southwest 436 502 34,000  Level Atlanta Center
Sat 09:12:37 AM 36.9328 -81.1253 236° Southwest 436 502 34,000  Level Atlanta Center
Sat 09:13:37 AM 36.8750 -81.2364 237° Southwest 441 507 34,000  Level Atlanta Center
Sat 09:14:37 AM 36.8092 -81.3631 237° Southwest 447 514 34,000  Level Atlanta Center
Sat 09:15:37 AM 36.7411 -81.4975 238° Southwest 437 503 34,000  Level Atlanta Center
Sat 09:16:37 AM 36.6747 -81.6239 237° Southwest 437 503 34,000  Level Atlanta Center
Sat 09:17:37 AM 36.6106 -81.7500 238° Southwest 442 509 34,000  Level Atlanta Center
Sat 09:18:37 AM 36.5500 -81.8603 236° Southwest 442 509 34,000  Level Atlanta Center
Sat 09:19:37 AM 36.4853 -81.9808 236° Southwest 436 502 34,000  Level Atlanta Center
Sat 09:20:37 AM 36.4183 -82.1036 236° Southwest 436 502 34,000  Level Atlanta Center
Sat 09:21:37 AM 36.3514 -82.2264 236° Southwest 436 502 34,000  Level Atlanta Center
Sat 09:22:37 AM 36.2864 -82.3517 237° Southwest 436 502 34,000  Level Atlanta Center
Sat 09:23:37 AM 36.2194 -82.4739 236° Southwest 441 507 34,000  Level Atlanta Center
Sat 09:24:37 AM 36.1519 -82.5986 236° Southwest 441 507 34,000  Level Atlanta Center
Sat 09:25:37 AM 36.0825 -82.7258 236° Southwest 446 513 34,000  Level Atlanta Center
Sat 09:26:37 AM 36.0169 -82.8475 236° Southwest 440 506 34,000  Level Atlanta Center
Sat 09:27:37 AM 35.9514 -82.9692 236° Southwest 440 506 34,000  Level Atlanta Center
Sat 09:28:37 AM 35.8794 -83.1008 236° Southwest 440 506 34,000  Level Atlanta Center
Sat 09:29:37 AM 35.8094 -83.2244 235° Southwest 440 506 34,000  Level Atlanta Center
Sat 09:30:37 AM 35.7414 -83.3481 236° Southwest 440 506 34,000  Level Atlanta Center
Sat 09:31:37 AM 35.6772 -83.4686 237° Southwest 440 506 34,000  Level Atlanta Center
Sat 09:32:37 AM 35.6089 -83.5892 235° Southwest 440 506 34,000  Level Atlanta Center
Sat 09:33:37 AM 35.5406 -83.7119 236° Southwest 440 506 34,000  Level Atlanta Center
Sat 09:34:37 AM 35.4719 -83.8347 236° Southwest 440 506 34,000  Level Atlanta Center
Sat 09:35:37 AM 35.4117 -83.9419 235° Southwest 445 512 34,000  Level Atlanta Center
Sat 09:36:37 AM 35.3428 -84.0617 235° Southwest 445 512 34,000  Level Atlanta Center
Sat 09:37:37 AM 35.2739 -84.1839 235° Southwest 445 512 34,000  Level Atlanta Center
Sat 09:38:37 AM 35.2047 -84.3031 235° Southwest 445 512 34,000  Level Atlanta Center
Sat 09:39:37 AM 35.1336 -84.4272 235° Southwest 445 512 34,000  Level Atlanta Center
Sat 09:40:37 AM 35.0664 -84.5439 235° Southwest 445 512 34,000  Level Atlanta Center
Sat 09:41:37 AM 34.9989 -84.6625 235° Southwest 445 512 34,000  Level Atlanta Center
Sat 09:42:37 AM 34.9314 -84.7836 236° Southwest 445 512 34,000  Level Atlanta Center
Sat 09:43:37 AM 34.8639 -84.9019 235° Southwest 445 512 34,000  Level Atlanta Center
Sat 09:44:37 AM 34.7964 -85.0178 235° Southwest 440 506 34,000  Level Atlanta Center
Sat 09:45:37 AM 34.7286 -85.1356 235° Southwest 440 506 34,000  Level Atlanta Center
Sat 09:46:37 AM 34.6608 -85.2483 234° Southwest 428 493 34,000  Level Atlanta Center
Sat 09:47:37 AM 34.5950 -85.3611 235° Southwest 423 487 34,000  Level Atlanta Center
Sat 09:48:37 AM 34.5247 -85.4758 233° Southwest 423 487 34,000  Level Atlanta Center
Sat 09:49:37 AM 34.4564 -85.5956 235° Southwest 428 493 34,000  Level Atlanta Center
Sat 09:50:37 AM 34.3817 -85.7253 235° Southwest 428 493 34,000  Level Atlanta Center
Sat 09:51:37 AM 34.3111 -85.8394 233° Southwest 429 494 34,000  Level Atlanta Center
Sat 09:52:37 AM 34.2428 -85.9536 234° Southwest 429 494 34,000  Level Atlanta Center
Sat 09:53:37 AM 34.1742 -86.0675 234° Southwest 429 494 34,000  Level Atlanta Center
Sat 09:54:37 AM 34.1053 -86.1839 234° Southwest 429 494 34,000  Level Atlanta Center
Sat 09:55:37 AM 34.0367 -86.2950 233° Southwest 429 494 34,000  Level Atlanta Center
Sat 09:56:37 AM 33.9656 -86.4108 234° Southwest 429 494 34,000  Level Atlanta Center
Sat 09:57:37 AM 33.8964 -86.5264 234° Southwest 429 494 34,000  Level Atlanta Center
Sat 09:58:37 AM 33.8381 -86.6272 235° Southwest 429 494 34,000  Level Atlanta Center
Sat 09:59:37 AM 33.7689 -86.7375 233° Southwest 424 488 34,000  Level Atlanta Center
Sat 10:00:37 AM 33.6997 -86.8478 233° Southwest 424 488 34,000  Level Atlanta Center
Sat 10:01:37 AM 33.6325 -86.9553 233° Southwest 424 488 34,000  Level Atlanta Center
Sat 10:02:37 AM 33.5608 -87.0653 232° Southwest 424 488 34,000  Level Atlanta Center
Sat 10:03:37 AM 33.4894 -87.1697 231° Southwest 419 482 34,000  Level Atlanta Center
Sat 10:05:20 AM 33.3661 -87.3550 231° Southwest 422 486 34,000  Level Memphis Center
Sat 10:06:20 AM 33.2897 -87.4694 231° Southwest 417 480 34,000  Level Memphis Center
Sat 10:07:20 AM 33.2189 -87.5736 231° Southwest 417 480 34,000  Level Memphis Center
Sat 10:08:20 AM 33.1503 -87.6775 232° Southwest 406 467 34,000  Level Memphis Center
Sat 10:09:20 AM 33.0772 -87.7814 230° Southwest 406 467 34,000  Level Memphis Center
Sat 10:10:20 AM 33.0106 -87.8825 232° Southwest 406 467 34,000  Level Memphis Center
Sat 10:11:20 AM 32.9497 -87.9781 233° Southwest 406 467 34,000  Level Memphis Center
Sat 10:12:20 AM 32.8806 -88.0764 230° Southwest 401 461 34,000 -350 Level Memphis Center
Sat 10:13:20 AM 32.8050 -88.1675 225° Southwest 396 456 33,300 -950 Descending Memphis Center
Sat 10:14:20 AM 32.7314 -88.2556 225° Southwest 391 450 32,100 -650 Descending Memphis Center
Sat 10:15:20 AM 32.6556 -88.3439 224° Southwest 381 438 32,000 -50 Descending Memphis Center
Sat 10:16:20 AM 32.5819 -88.4317 225° Southwest 381 438 32,000  Level Memphis Center
Sat 10:17:20 AM 32.5058 -88.5222 225° Southwest 381 438 32,000  Level Memphis Center
Sat 10:18:20 AM 32.4300 -88.6122 225° Southwest 381 438 32,000  Level Memphis Center
Sat 10:19:20 AM 32.3539 -88.6997 224° Southwest 381 438 32,000  Level Memphis Center
Sat 10:20:20 AM 32.2800 -88.7847 224° Southwest 381 438 32,000  Level Memphis Center
Sat 10:21:20 AM 32.2039 -88.8744 225° Southwest 381 438 32,000  Level Memphis Center
Sat 10:22:20 AM 32.1297 -88.9614 225° Southwest 381 438 32,000 -100 Level Memphis Center
Sat 10:23:20 AM 32.0533 -89.0486 224° Southwest 386 444 31,800 -550 Descending Memphis Center
Sat 10:24:20 AM 31.9769 -89.1353 224° Southwest 386 444 30,900 -950 Descending Memphis Center
Sat 10:25:20 AM 31.9006 -89.2244 225° Southwest 386 444 29,900 -1,036 Descending Memphis Center
Sat 10:27:08 AM 31.7533 -89.3939 224° Southwest 389 448 28,000 -671 Descending Houston Center
Sat 10:28:10 AM 31.6744 -89.4789 223° Southwest 387 445 28,000  Level Houston Center
Sat 10:29:11 AM 31.5761 -89.5422 209° Southwest 406 467 28,000 -49 Level Houston Center
Sat 10:30:13 AM 31.4672 -89.6119 209° Southwest 411 473 27,900 -581 Descending Houston Center
Sat 10:31:15 AM 31.3683 -89.6761 209° Southwest 409 471 26,800 -1,463 Descending Houston Center
Sat 10:32:16 AM 31.2686 -89.7397 209° Southwest 410 472 24,900 -1,854 Descending Houston Center
Sat 10:33:18 AM 31.1756 -89.7994 209° Southwest 389 448 23,000 -1,839 Descending Houston Center
Sat 10:34:20 AM 31.0839 -89.8575 208° Southwest 377 434 21,100 -1,805 Descending Houston Center
Sat 10:35:21 AM 30.9967 -89.9136 209° Southwest 363 418 19,300 -1,659 Descending Houston Center
Sat 10:36:23 AM 30.9133 -89.9672 209° Southwest 349 402 17,700 -1,800 Descending Houston Center
Sat 10:36:41 AM 30.8706 -89.9947 209° Southwest 343 395 16,900 -1,967 Descending Houston Center
Sat 10:37:24 AM 30.8131 -90.0306 208° Southwest 344 396 15,700 -1,694 Descending Houston Center
Sat 10:38:06 AM 30.7494 -90.0581 200° South 352 405 14,500 -1,742 Descending Houston Center
Sat 10:38:26 AM 30.7200 -90.0575 179° South 356 410 13,900 -1,833 Descending Houston Center
Sat 10:38:42 AM 30.6889 -90.0583 181° South 367 422 13,400 -1,645 Descending Houston Center
Sat 10:39:28 AM 30.6217 -90.0597 181° South 356 410 12,200 -1,612 Descending Houston Center
Sat 10:39:49 AM 30.5781 -90.0606 181° South 335 386 11,600 -1,279 Descending Houston Center
Sat 10:40:29 AM 30.5347 -90.0611 181° South 324 373 10,900 -1,279 Descending Houston Center
Sat 10:40:50 AM 30.4967 -90.0617 181° South 292 336 10,300 -1,645 Descending Houston Center
Sat 10:41:31 AM 30.4556 -90.0642 183° South 295 339 9,200 -2,121 Descending Houston Center
Sat 10:42:46 AM 30.3450 -90.0919 192° South 290 334 6,200 -2,129 Descending Houston Center
Sat 10:43:35 AM 30.2828 -90.1078 192° South 294 338 4,800 -1,726 Descending Houston Center
Sat 10:43:59 AM 30.2456 -90.1178 193° South 294 338 4,100 -787 Descending Houston Center
Sat 10:44:36 AM 30.2058 -90.1319 197° South 292 336 4,000 -98 Descending Houston Center
Sat 10:45:00 AM 30.1692 -90.1428 194° South 285 328 4,000 -194 Level Houston Center
Sat 10:45:38 AM 30.1297 -90.1572 198° South 289 333 3,800 -600 Descending Houston Center
Sat 10:46:00 AM 30.0925 -90.1700 197° South 285 328 3,400 -774 Descending Houston Center
Sat 10:46:40 AM 30.0553 -90.1833 197° South 285 328 3,000 -436 Descending Houston Center
Sat 10:46:55 AM 30.0264 -90.1942 198° South 266 306 3,000  Level Houston Center
Sat 10:47:41 AM 29.9917 -90.2064 197° South 261 300 3,000 -98 Level Houston Center
Sat 10:47:56 AM 29.9706 -90.2133 196° South 191 220 2,900 -677 Descending Houston Center
Sat 10:48:43 AM 29.9319 -90.2214 190° South 206 237 2,300 -716 Descending Houston Center
Sat 10:49:45 AM 29.8986 -90.2464 213° Southwest 187 215 1,600 -537 Descending Houston Center
Sat 10:50:46 AM 29.9339 -90.2686 331° Northwest 169 194 1,200 -639 Descending Houston Center
Sat 10:51:47 AM 29.9719 -90.2564 16° North 142 163 300 -885 Descending Houston Center

Login

Don't have an account? Register now (free) for customized features, flight alerts, and more!